sensor_id;sensor_type;location;lat;lon;timestamp;pressure;altitude;pressure_sealevel;temperature;humidity
23427;BME280;41148;45.420;10.952;2023-12-28T00:00:51;101916.16;;;8.52;90.52
23427;BME280;41148;45.420;10.952;2023-12-28T00:03:18;101921.44;;;8.32;91.08
23427;BME280;41148;45.420;10.952;2023-12-28T00:05:46;101919.66;;;8.20;91.58
23427;BME280;41148;45.420;10.952;2023-12-28T00:08:14;101914.34;;;8.25;91.67
23427;BME280;41148;45.420;10.952;2023-12-28T00:10:41;101916.09;;;8.26;91.25
23427;BME280;41148;45.420;10.952;2023-12-28T00:13:09;101912.59;;;8.39;90.48
23427;BME280;41148;45.420;10.952;2023-12-28T00:15:40;101906.38;;;8.28;90.31
23427;BME280;41148;45.420;10.952;2023-12-28T00:18:07;101912.63;;;8.35;89.14
23427;BME280;41148;45.420;10.952;2023-12-28T00:20:35;101931.22;;;8.41;88.96
23427;BME280;41148;45.420;10.952;2023-12-28T00:23:03;101919.72;;;8.42;88.71
23427;BME280;41148;45.420;10.952;2023-12-28T00:25:32;101936.53;;;8.54;88.41
23427;BME280;41148;45.420;10.952;2023-12-28T00:28:00;101918.81;;;8.41;87.77
23427;BME280;41148;45.420;10.952;2023-12-28T00:30:28;101917.06;;;8.42;88.02
23427;BME280;41148;45.420;10.952;2023-12-28T00:32:55;101916.19;;;8.50;87.39
23427;BME280;41148;45.420;10.952;2023-12-28T00:35:23;101923.25;;;8.51;87.74
23427;BME280;41148;45.420;10.952;2023-12-28T00:37:51;101916.16;;;8.52;87.17
23427;BME280;41148;45.420;10.952;2023-12-28T00:40:18;101924.09;;;8.32;88.07
23427;BME280;41148;45.420;10.952;2023-12-28T00:42:46;101913.50;;;8.37;88.09
23427;BME280;41148;45.420;10.952;2023-12-28T00:45:14;101907.28;;;8.31;87.58
23427;BME280;41148;45.420;10.952;2023-12-28T00:47:41;101913.50;;;8.37;87.08
23427;BME280;41148;45.420;10.952;2023-12-28T00:50:12;101901.97;;;8.33;87.64
23427;BME280;41148;45.420;10.952;2023-12-28T00:52:42;101917.06;;;8.42;86.99
23427;BME280;41148;45.420;10.952;2023-12-28T00:55:10;101928.53;;;8.38;86.66
23427;BME280;41148;45.420;10.952;2023-12-28T00:57:38;101926.78;;;8.40;86.59
23427;BME280;41148;45.420;10.952;2023-12-28T01:00:06;101916.16;;;8.46;86.12
23427;BME280;41148;45.420;10.952;2023-12-28T01:02:33;101919.72;;;8.43;85.47
23427;BME280;41148;45.420;10.952;2023-12-28T01:05:01;101923.25;;;8.51;85.04
23427;BME280;41148;45.420;10.952;2023-12-28T01:07:29;101922.34;;;8.37;85.24
23427;BME280;41148;45.420;10.952;2023-12-28T01:09:57;101910.81;;;8.33;85.62
23427;BME280;41148;45.420;10.952;2023-12-28T01:12:24;101913.47;;;8.30;85.42
23427;BME280;41148;45.420;10.952;2023-12-28T01:14:52;101913.50;;;8.38;85.13
23427;BME280;41148;45.420;10.952;2023-12-28T01:17:20;101908.19;;;8.41;84.80
23427;BME280;41148;45.420;10.952;2023-12-28T01:19:48;101909.91;;;8.24;84.31
23427;BME280;41148;45.420;10.952;2023-12-28T01:22:16;101915.22;;;8.27;84.81
23427;BME280;41148;45.420;10.952;2023-12-28T01:24:47;101920.56;;;8.38;84.62
23427;BME280;41148;45.420;10.952;2023-12-28T01:27:17;101918.81;;;8.44;84.71
23427;BME280;41148;45.420;10.952;2023-12-28T01:29:45;101921.50;;;8.40;84.92
23427;BME280;41148;45.420;10.952;2023-12-28T01:32:13;101923.19;;;8.21;84.15
23427;BME280;41148;45.420;10.952;2023-12-28T01:34:40;101929.38;;;8.24;84.30
23427;BME280;41148;45.420;10.952;2023-12-28T01:37:09;101933.78;;;8.10;84.68
23427;BME280;41148;45.420;10.952;2023-12-28T01:39:37;101924.09;;;8.23;84.35
23427;BME280;41148;45.420;10.952;2023-12-28T01:42:05;101918.75;;;8.03;85.00
23427;BME280;41148;45.420;10.952;2023-12-28T01:44:32;101920.53;;;8.21;84.86
23427;BME280;41148;45.420;10.952;2023-12-28T01:47:00;101925.84;;;8.22;83.71
23427;BME280;41148;45.420;10.952;2023-12-28T01:49:28;101924.97;;;8.26;83.90
23427;BME280;41148;45.420;10.952;2023-12-28T01:51:57;101921.44;;;8.32;83.90
23427;BME280;41148;45.420;10.952;2023-12-28T01:54:25;101917.00;;;8.29;84.23
23427;BME280;41148;45.420;10.952;2023-12-28T01:56:53;101922.28;;;8.19;84.29
23427;BME280;41148;45.420;10.952;2023-12-28T01:59:21;101922.31;;;8.32;83.91
23427;BME280;41148;45.420;10.952;2023-12-28T02:01:49;101902.84;;;8.26;83.47
23427;BME280;41148;45.420;10.952;2023-12-28T02:04:17;101903.75;;;8.20;84.13
23427;BME280;41148;45.420;10.952;2023-12-28T02:06:45;101911.72;;;8.37;83.90
23427;BME280;41148;45.420;10.952;2023-12-28T02:09:12;101902.88;;;8.38;83.20
23427;BME280;41148;45.420;10.952;2023-12-28T02:11:40;101896.63;;;8.28;83.97
23427;BME280;41148;45.420;10.952;2023-12-28T02:14:08;101894.88;;;8.32;84.18
23427;BME280;41148;45.420;10.952;2023-12-28T02:16:39;101874.50;;;8.26;83.82
23427;BME280;41148;45.420;10.952;2023-12-28T02:19:39;101884.28;;;8.30;84.58
23427;BME280;41148;45.420;10.952;2023-12-28T02:22:08;101899.34;;;8.51;84.51
23427;BME280;41148;45.420;10.952;2023-12-28T02:27:27;101881.66;;;8.41;85.07
23427;BME280;41148;45.420;10.952;2023-12-28T02:29:55;101878.97;;;8.38;85.39
23427;BME280;41148;45.420;10.952;2023-12-28T02:32:42;101879.88;;;8.43;84.90
23427;BME280;41148;45.420;10.952;2023-12-28T02:35:33;101884.25;;;8.29;85.09
23427;BME280;41148;45.420;10.952;2023-12-28T02:38:11;101886.91;;;8.29;85.27
23427;BME280;41148;45.420;10.952;2023-12-28T02:40:40;101881.59;;;8.27;84.70
23427;BME280;41148;45.420;10.952;2023-12-28T02:43:10;101886.03;;;8.21;85.39
23427;BME280;41148;45.420;10.952;2023-12-28T02:45:38;101866.56;;;8.20;85.33
23427;BME280;41148;45.420;10.952;2023-12-28T02:48:07;101870.09;;;8.22;85.03
23427;BME280;41148;45.420;10.952;2023-12-28T02:50:36;101885.13;;;8.29;85.55
23427;BME280;41148;45.420;10.952;2023-12-28T02:53:04;101864.78;;;8.28;84.25
23427;BME280;41148;45.420;10.952;2023-12-28T02:55:31;101866.56;;;8.31;83.98
23427;BME280;41148;45.420;10.952;2023-12-28T02:57:59;101863.94;;;8.37;83.66
23427;BME280;41148;45.420;10.952;2023-12-28T03:00:28;101877.22;;;8.40;83.45
23427;BME280;41148;45.420;10.952;2023-12-28T03:02:56;101874.53;;;8.34;83.29
23427;BME280;41148;45.420;10.952;2023-12-28T03:05:24;101862.16;;;8.30;83.59
23427;BME280;41148;45.420;10.952;2023-12-28T03:07:52;101853.28;;;8.31;83.28
23427;BME280;41148;45.420;10.952;2023-12-28T03:10:19;101864.81;;;8.39;82.87
23427;BME280;41148;45.420;10.952;2023-12-28T03:12:47;101857.72;;;8.30;82.82
23427;BME280;41148;45.420;10.952;2023-12-28T03:15:17;101873.66;;;8.32;83.16
23427;BME280;41148;45.420;10.952;2023-12-28T03:17:44;101862.13;;;8.33;83.20
23427;BME280;41148;45.420;10.952;2023-12-28T03:20:12;101870.97;;;8.29;83.72
23427;BME280;41148;45.420;10.952;2023-12-28T03:22:39;101865.66;;;8.24;83.75
23427;BME280;41148;45.420;10.952;2023-12-28T03:25:08;101879.84;;;8.31;83.39
23427;BME280;41148;45.420;10.952;2023-12-28T03:27:36;101874.53;;;8.34;83.94
23427;BME280;41148;45.420;10.952;2023-12-28T03:30:04;101866.56;;;8.25;83.68
23427;BME280;41148;45.420;10.952;2023-12-28T03:32:32;101872.75;;;8.25;84.37
23427;BME280;41148;45.420;10.952;2023-12-28T03:34:59;101863.00;;;8.29;83.85
23427;BME280;41148;45.420;10.952;2023-12-28T03:37:27;101856.81;;;8.16;84.03
23427;BME280;41148;45.420;10.952;2023-12-28T03:39:55;101875.41;;;8.22;84.86
23427;BME280;41148;45.420;10.952;2023-12-28T03:42:23;101866.56;;;8.14;85.46
23427;BME280;41148;45.420;10.952;2023-12-28T03:44:51;101868.31;;;8.27;85.07
23427;BME280;41148;45.420;10.952;2023-12-28T03:47:18;101864.78;;;8.24;84.82
23427;BME280;41148;45.420;10.952;2023-12-28T03:49:46;101852.41;;;8.23;84.90
23427;BME280;41148;45.420;10.952;2023-12-28T03:52:14;101855.03;;;8.26;84.92
23427;BME280;41148;45.420;10.952;2023-12-28T03:54:41;101863.00;;;8.29;84.56
23427;BME280;41148;45.420;10.952;2023-12-28T03:57:09;101846.22;;;8.35;83.36
23427;BME280;41148;45.420;10.952;2023-12-28T03:59:39;101862.13;;;8.27;83.74
23427;BME280;41148;45.420;10.952;2023-12-28T04:02:07;101853.28;;;8.25;84.20
23427;BME280;41148;45.420;10.952;2023-12-28T04:04:34;101852.41;;;8.21;84.06
23427;BME280;41148;45.420;10.952;2023-12-28T04:07:02;101850.63;;;8.16;84.26
23427;BME280;41148;45.420;10.952;2023-12-28T04:09:29;101843.53;;;8.19;84.37
23427;BME280;41148;45.420;10.952;2023-12-28T04:11:57;101861.25;;;8.14;84.97
23427;BME280;41148;45.420;10.952;2023-12-28T04:14:24;101859.50;;;8.21;85.23
23427;BME280;41148;45.420;10.952;2023-12-28T04:16:52;101850.63;;;8.34;84.38
23427;BME280;41148;45.420;10.952;2023-12-28T04:19:21;101852.44;;;8.41;84.12
23427;BME280;41148;45.420;10.952;2023-12-28T04:21:48;101838.28;;;8.41;84.01
23427;BME280;41148;45.420;10.952;2023-12-28T04:24:16;101841.78;;;8.38;83.93
23427;BME280;41148;45.420;10.952;2023-12-28T04:26:44;101828.50;;;8.32;84.15
23427;BME280;41148;45.420;10.952;2023-12-28T04:29:12;101836.50;;;8.35;84.33
23427;BME280;41148;45.420;10.952;2023-12-28T04:31:43;101832.94;;;8.31;84.25
23427;BME280;41148;45.420;10.952;2023-12-28T04:34:10;101834.69;;;8.29;83.74
23427;BME280;41148;45.420;10.952;2023-12-28T04:36:42;101825.84;;;8.26;83.53
23427;BME280;41148;45.420;10.952;2023-12-28T04:39:12;101840.03;;;8.40;83.47
23427;BME280;41148;45.420;10.952;2023-12-28T04:41:40;101838.25;;;8.39;82.79
23427;BME280;41148;45.420;10.952;2023-12-28T04:44:08;101828.53;;;8.41;82.48
23427;BME280;41148;45.420;10.952;2023-12-28T04:46:38;101837.38;;;8.37;83.01
23427;BME280;41148;45.420;10.952;2023-12-28T04:49:10;101839.13;;;8.47;83.12
23427;BME280;41148;45.420;10.952;2023-12-28T04:51:47;101833.84;;;8.35;84.03
23427;BME280;41148;45.420;10.952;2023-12-28T04:54:14;101825.88;;;8.37;83.53
23427;BME280;41148;45.420;10.952;2023-12-28T04:56:42;101830.31;;;8.42;83.72
23427;BME280;41148;45.420;10.952;2023-12-28T04:59:09;101838.25;;;8.44;83.94
23427;BME280;41148;45.420;10.952;2023-12-28T05:01:41;101843.56;;;8.39;84.30
23427;BME280;41148;45.420;10.952;2023-12-28T05:04:09;101832.06;;;8.36;83.86
23427;BME280;41148;45.420;10.952;2023-12-28T05:06:43;101846.22;;;8.47;84.23
23427;BME280;41148;45.420;10.952;2023-12-28T05:09:10;101853.31;;;8.46;84.22
23427;BME280;41148;45.420;10.952;2023-12-28T05:11:39;101841.81;;;8.43;84.96
23427;BME280;41148;45.420;10.952;2023-12-28T05:14:06;101849.75;;;8.44;84.46
23427;BME280;41148;45.420;10.952;2023-12-28T05:16:37;101840.03;;;8.39;84.82
23427;BME280;41148;45.420;10.952;2023-12-28T05:19:04;101842.69;;;8.43;85.15
23427;BME280;41148;45.420;10.952;2023-12-28T05:21:32;101844.44;;;8.58;84.92
23427;BME280;41148;45.420;10.952;2023-12-28T05:24:00;101843.56;;;8.53;85.30
23427;BME280;41148;45.420;10.952;2023-12-28T05:26:27;101853.28;;;8.58;84.82
23427;BME280;41148;45.420;10.952;2023-12-28T05:28:55;101856.84;;;8.48;85.70
23427;BME280;41148;45.420;10.952;2023-12-28T05:31:22;101856.84;;;8.42;86.27
23427;BME280;41148;45.420;10.952;2023-12-28T05:33:50;101856.84;;;8.36;86.01
23427;BME280;41148;45.420;10.952;2023-12-28T05:36:17;101869.25;;;8.45;85.85
23427;BME280;41148;45.420;10.952;2023-12-28T05:38:45;101852.41;;;8.33;86.19
23427;BME280;41148;45.420;10.952;2023-12-28T05:41:12;101865.66;;;8.20;86.85
23427;BME280;41148;45.420;10.952;2023-12-28T05:43:40;101858.59;;;8.11;87.60
23427;BME280;41148;45.420;10.952;2023-12-28T05:46:07;101855.91;;;8.10;87.34
23427;BME280;41148;45.420;10.952;2023-12-28T05:48:35;101850.63;;;8.05;87.70
23427;BME280;41148;45.420;10.952;2023-12-28T05:51:03;101860.34;;;8.09;86.84
23427;BME280;41148;45.420;10.952;2023-12-28T05:53:30;101870.97;;;8.27;86.80
23427;BME280;41148;45.420;10.952;2023-12-28T05:55:58;101871.91;;;8.42;87.01
23427;BME280;41148;45.420;10.952;2023-12-28T05:58:30;101877.22;;;8.36;86.18
23427;BME280;41148;45.420;10.952;2023-12-28T06:00:58;101885.19;;;8.40;86.25
23427;BME280;41148;45.420;10.952;2023-12-28T06:03:25;101880.72;;;8.24;87.25
23427;BME280;41148;45.420;10.952;2023-12-28T06:05:56;101877.16;;;8.26;86.24
23427;BME280;41148;45.420;10.952;2023-12-28T06:08:23;101874.53;;;8.34;86.79
23427;BME280;41148;45.420;10.952;2023-12-28T06:10:54;101886.03;;;8.33;86.49
23427;BME280;41148;45.420;10.952;2023-12-28T06:13:21;101877.16;;;8.26;86.88
23427;BME280;41148;45.420;10.952;2023-12-28T06:15:49;101876.31;;;8.21;86.82
23427;BME280;41148;45.420;10.952;2023-12-28T06:18:16;101878.06;;;8.31;87.07
23427;BME280;41148;45.420;10.952;2023-12-28T06:20:44;101880.72;;;8.24;86.81
23427;BME280;41148;45.420;10.952;2023-12-28T06:23:11;101883.38;;;8.27;87.48
23427;BME280;41148;45.420;10.952;2023-12-28T06:25:39;101885.13;;;8.28;86.93
23427;BME280;41148;45.420;10.952;2023-12-28T06:28:06;101887.78;;;8.28;87.51
23427;BME280;41148;45.420;10.952;2023-12-28T06:30:34;101894.91;;;8.35;86.74
23427;BME280;41148;45.420;10.952;2023-12-28T06:33:02;101895.75;;;8.34;87.12
23427;BME280;41148;45.420;10.952;2023-12-28T06:35:30;101889.56;;;8.18;87.99
23427;BME280;41148;45.420;10.952;2023-12-28T06:37:58;101894.84;;;8.20;88.04
23427;BME280;41148;45.420;10.952;2023-12-28T06:40:26;101899.28;;;8.25;87.89
23427;BME280;41148;45.420;10.952;2023-12-28T06:42:54;101899.28;;;8.19;88.26
23427;BME280;41148;45.420;10.952;2023-12-28T06:45:22;101896.66;;;8.21;88.62
23427;BME280;41148;45.420;10.952;2023-12-28T06:47:55;101902.81;;;8.18;88.57
23427;BME280;41148;45.420;10.952;2023-12-28T06:50:23;101899.28;;;8.07;89.29
23427;BME280;41148;45.420;10.952;2023-12-28T06:52:50;101899.28;;;8.07;89.03
23427;BME280;41148;45.420;10.952;2023-12-28T06:55:18;101904.59;;;8.18;88.70
23427;BME280;41148;45.420;10.952;2023-12-28T06:57:45;101894.88;;;8.26;88.36
23427;BME280;41148;45.420;10.952;2023-12-28T07:00:13;101894.03;;;8.38;87.63
23427;BME280;41148;45.420;10.952;2023-12-28T07:02:41;101883.41;;;8.50;87.07
23427;BME280;41148;45.420;10.952;2023-12-28T07:05:09;101889.63;;;8.40;86.60
23427;BME280;41148;45.420;10.952;2023-12-28T07:07:36;101891.38;;;8.47;86.89
23427;BME280;41148;45.420;10.952;2023-12-28T07:10:04;101896.69;;;8.42;86.89
23427;BME280;41148;45.420;10.952;2023-12-28T07:12:32;101895.81;;;8.42;86.91
23427;BME280;41148;45.420;10.952;2023-12-28T07:15:00;101898.41;;;8.23;87.46
23427;BME280;41148;45.420;10.952;2023-12-28T07:17:28;101895.75;;;8.26;87.85
23427;BME280;41148;45.420;10.952;2023-12-28T07:19:55;101900.22;;;8.38;87.17
23427;BME280;41148;45.420;10.952;2023-12-28T07:22:23;101905.53;;;8.49;86.79
23427;BME280;41148;45.420;10.952;2023-12-28T07:24:51;101899.34;;;8.38;86.75
23427;BME280;41148;45.420;10.952;2023-12-28T07:27:18;101896.66;;;8.33;87.05
23427;BME280;41148;45.420;10.952;2023-12-28T07:29:49;101904.59;;;8.27;87.44
23427;BME280;41148;45.420;10.952;2023-12-28T07:32:17;101906.41;;;8.37;86.98
23427;BME280;41148;45.420;10.952;2023-12-28T07:34:47;101900.22;;;8.44;86.80
23427;BME280;41148;45.420;10.952;2023-12-28T07:37:14;101912.63;;;8.42;87.00
23427;BME280;41148;45.420;10.952;2023-12-28T07:39:42;101916.16;;;8.61;86.65
23427;BME280;41148;45.420;10.952;2023-12-28T07:42:10;101915.28;;;8.56;86.71
23427;BME280;41148;45.420;10.952;2023-12-28T07:44:38;101914.41;;;8.52;86.85
23427;BME280;41148;45.420;10.952;2023-12-28T07:47:06;101924.13;;;8.53;87.04
23427;BME280;41148;45.420;10.952;2023-12-28T07:49:36;101921.47;;;8.52;87.34
23427;BME280;41148;45.420;10.952;2023-12-28T07:52:04;101919.72;;;8.54;87.43
23427;BME280;41148;45.420;10.952;2023-12-28T07:54:31;101925.03;;;8.62;87.41
23427;BME280;41148;45.420;10.952;2023-12-28T07:56:59;101925.00;;;8.68;86.92
23427;BME280;41148;45.420;10.952;2023-12-28T07:59:27;101914.38;;;8.66;87.46
23427;BME280;41148;45.420;10.952;2023-12-28T08:01:55;101921.47;;;8.67;87.44
23427;BME280;41148;45.420;10.952;2023-12-28T08:04:22;101907.31;;;8.62;87.85
23427;BME280;41148;45.420;10.952;2023-12-28T08:06:50;101913.50;;;8.73;88.21
23427;BME280;41148;45.420;10.952;2023-12-28T08:09:18;101923.22;;;8.68;88.15
23427;BME280;41148;45.420;10.952;2023-12-28T08:11:45;101925.00;;;8.75;88.49
23427;BME280;41148;45.420;10.952;2023-12-28T08:14:13;101922.34;;;8.83;88.48
23427;BME280;41148;45.420;10.952;2023-12-28T08:16:40;101922.31;;;8.95;87.81
23427;BME280;41148;45.420;10.952;2023-12-28T08:19:08;101925.84;;;8.97;87.91
23427;BME280;41148;45.420;10.952;2023-12-28T08:21:35;101925.00;;;8.86;87.99
23427;BME280;41148;45.420;10.952;2023-12-28T08:24:03;101932.06;;;8.96;89.13
23427;BME280;41148;45.420;10.952;2023-12-28T08:26:31;101929.41;;;8.96;88.96
23427;BME280;41148;45.420;10.952;2023-12-28T08:29:03;101935.63;;;8.92;89.62
23427;BME280;41148;45.420;10.952;2023-12-28T08:31:33;101940.94;;;8.87;90.23
23427;BME280;41148;45.420;10.952;2023-12-28T08:34:01;101919.72;;;8.69;90.79
23427;BME280;41148;45.420;10.952;2023-12-28T08:36:29;101927.66;;;8.75;91.40
23427;BME280;41148;45.420;10.952;2023-12-28T08:38:57;101922.34;;;8.84;90.69
23427;BME280;41148;45.420;10.952;2023-12-28T08:41:24;101931.19;;;8.83;89.61
23427;BME280;41148;45.420;10.952;2023-12-28T08:43:53;101937.41;;;8.90;89.68
23427;BME280;41148;45.420;10.952;2023-12-28T08:46:23;101951.59;;;8.89;89.85
23427;BME280;41148;45.420;10.952;2023-12-28T08:48:54;101940.03;;;8.95;89.76
23427;BME280;41148;45.420;10.952;2023-12-28T08:51:22;101943.59;;;9.00;89.03
23427;BME280;41148;45.420;10.952;2023-12-28T08:53:50;101934.72;;;9.02;89.59
23427;BME280;41148;45.420;10.952;2023-12-28T08:56:21;101949.75;;;9.06;89.65
23427;BME280;41148;45.420;10.952;2023-12-28T08:58:49;101952.41;;;9.18;89.27
23427;BME280;41148;45.420;10.952;2023-12-28T09:01:22;101953.28;;;9.30;88.85
23427;BME280;41148;45.420;10.952;2023-12-28T09:03:52;101950.59;;;9.34;89.09
23427;BME280;41148;45.420;10.952;2023-12-28T09:06:20;101956.78;;;9.39;88.79
23427;BME280;41148;45.420;10.952;2023-12-28T09:08:49;101970.09;;;9.41;89.12
23427;BME280;41148;45.420;10.952;2023-12-28T09:11:18;101964.78;;;9.33;89.74
23427;BME280;41148;45.420;10.952;2023-12-28T09:13:46;101967.44;;;9.35;90.56
23427;BME280;41148;45.420;10.952;2023-12-28T09:16:14;101969.19;;;9.43;90.66
23427;BME280;41148;45.420;10.952;2023-12-28T09:18:42;101967.41;;;9.42;90.18
23427;BME280;41148;45.420;10.952;2023-12-28T09:21:10;101965.63;;;9.51;90.68
23427;BME280;41148;45.420;10.952;2023-12-28T09:23:38;101967.41;;;9.56;90.47
23427;BME280;41148;45.420;10.952;2023-12-28T09:26:07;101960.25;;;9.66;90.33
23427;BME280;41148;45.420;10.952;2023-12-28T09:28:39;101954.94;;;9.63;90.36
23427;BME280;41148;45.420;10.952;2023-12-28T09:31:10;101971.78;;;9.66;90.44
23427;BME280;41148;45.420;10.952;2023-12-28T09:33:38;101956.69;;;9.70;90.59
23427;BME280;41148;45.420;10.952;2023-12-28T09:36:06;101967.25;;;9.82;90.40
23427;BME280;41148;45.420;10.952;2023-12-28T09:38:35;101948.66;;;9.74;90.61
23427;BME280;41148;45.420;10.952;2023-12-28T09:41:12;101956.69;;;9.64;91.33
23427;BME280;41148;45.420;10.952;2023-12-28T09:43:53;101961.03;;;9.83;91.26
23427;BME280;41148;45.420;10.952;2023-12-28T09:46:24;101947.75;;;9.83;90.66
23427;BME280;41148;45.420;10.952;2023-12-28T09:48:54;101949.47;;;9.92;90.29
23427;BME280;41148;45.420;10.952;2023-12-28T09:51:24;101941.50;;;9.95;90.31
23427;BME280;41148;45.420;10.952;2023-12-28T09:53:53;101967.22;;;9.91;91.08
23427;BME280;41148;45.420;10.952;2023-12-28T09:56:21;101949.47;;;9.93;91.15
23427;BME280;41148;45.420;10.952;2023-12-28T09:58:51;101960.16;;;9.86;92.20
23427;BME280;41148;45.420;10.952;2023-12-28T10:01:19;101966.31;;;9.98;91.62
23427;BME280;41148;45.420;10.952;2023-12-28T10:03:47;101938.84;;;9.90;91.49
23427;BME280;41148;45.420;10.952;2023-12-28T10:06:15;101953.84;;;10.07;91.81
23427;BME280;41148;45.420;10.952;2023-12-28T10:08:47;101952.94;;;10.08;91.81
23427;BME280;41148;45.420;10.952;2023-12-28T10:11:16;101949.34;;;10.16;92.13
23427;BME280;41148;45.420;10.952;2023-12-28T10:13:44;101944.03;;;10.13;91.82
23427;BME280;41148;45.420;10.952;2023-12-28T10:16:13;101944.03;;;10.16;90.74
23427;BME280;41148;45.420;10.952;2023-12-28T10:18:43;101935.13;;;10.23;89.83
23427;BME280;41148;45.420;10.952;2023-12-28T10:21:13;101934.22;;;10.20;89.23
23427;BME280;41148;45.420;10.952;2023-12-28T10:23:40;101926.25;;;10.26;88.56
23427;BME280;41148;45.420;10.952;2023-12-28T10:26:08;101924.41;;;10.31;88.07
23427;BME280;41148;45.420;10.952;2023-12-28T10:28:36;101925.19;;;10.45;87.72
23427;BME280;41148;45.420;10.952;2023-12-28T10:31:07;101921.59;;;10.51;87.56
23427;BME280;41148;45.420;10.952;2023-12-28T10:33:36;101918.06;;;10.47;87.70
23427;BME280;41148;45.420;10.952;2023-12-28T10:36:07;101921.59;;;10.52;88.28
23427;BME280;41148;45.420;10.952;2023-12-28T10:38:38;101925.22;;;10.44;88.58
23427;BME280;41148;45.420;10.952;2023-12-28T10:41:08;101912.03;;;10.27;89.43
23427;BME280;41148;45.420;10.952;2023-12-28T10:44:03;101921.72;;;10.32;89.19
23427;BME280;41148;45.420;10.952;2023-12-28T10:46:40;101908.47;;;10.28;89.99
23427;BME280;41148;45.420;10.952;2023-12-28T10:49:16;101916.34;;;10.42;89.07
23427;BME280;41148;45.420;10.952;2023-12-28T10:51:51;101912.72;;;10.52;88.17
23427;BME280;41148;45.420;10.952;2023-12-28T10:54:41;101896.75;;;10.49;87.61
23427;BME280;41148;45.420;10.952;2023-12-28T10:57:13;101892.28;;;10.49;87.21
23427;BME280;41148;45.420;10.952;2023-12-28T11:02:44;101898.34;;;10.70;86.53
23427;BME280;41148;45.420;10.952;2023-12-28T11:05:15;101894.78;;;10.69;86.83
23427;BME280;41148;45.420;10.952;2023-12-28T11:07:45;101888.50;;;10.76;85.96
23427;BME280;41148;45.420;10.952;2023-12-28T11:10:13;101876.97;;;10.74;86.29
23427;BME280;41148;45.420;10.952;2023-12-28T11:12:43;101874.16;;;10.88;85.79
23427;BME280;41148;45.420;10.952;2023-12-28T11:15:11;101868.06;;;10.77;85.79
23427;BME280;41148;45.420;10.952;2023-12-28T11:17:44;101875.22;;;10.73;85.41
23427;BME280;41148;45.420;10.952;2023-12-28T11:20:12;101862.75;;;10.75;85.69
23427;BME280;41148;45.420;10.952;2023-12-28T11:22:42;101861.88;;;10.73;85.34
23427;BME280;41148;45.420;10.952;2023-12-28T11:25:17;101859.97;;;10.86;84.78
23427;BME280;41148;45.420;10.952;2023-12-28T11:27:46;101847.47;;;10.89;84.86
23427;BME280;41148;45.420;10.952;2023-12-28T11:30:14;101838.44;;;11.04;83.68
23427;BME280;41148;45.420;10.952;2023-12-28T11:32:42;101838.47;;;11.00;84.20
23427;BME280;41148;45.420;10.952;2023-12-28T11:35:12;101832.28;;;10.98;84.13
23427;BME280;41148;45.420;10.952;2023-12-28T11:37:46;101830.47;;;11.03;83.61
23427;BME280;41148;45.420;10.952;2023-12-28T11:40:17;101832.13;;;11.13;82.00
23427;BME280;41148;45.420;10.952;2023-12-28T11:42:53;101823.31;;;11.05;82.31
23427;BME280;41148;45.420;10.952;2023-12-28T11:45:22;101818.97;;;10.96;82.98
23427;BME280;41148;45.420;10.952;2023-12-28T11:48:00;101821.44;;;11.14;82.08
23427;BME280;41148;45.420;10.952;2023-12-28T11:50:28;101822.06;;;11.33;81.39
23427;BME280;41148;45.420;10.952;2023-12-28T11:52:56;101801.41;;;11.47;81.02
23427;BME280;41148;45.420;10.952;2023-12-28T11:55:23;101814.03;;;11.35;79.28
23427;BME280;41148;45.420;10.952;2023-12-28T11:57:51;101796.22;;;11.37;79.78
23427;BME280;41148;45.420;10.952;2023-12-28T12:00:19;101807.88;;;11.31;79.93
23427;BME280;41148;45.420;10.952;2023-12-28T12:02:48;101802.63;;;11.24;80.81
23427;BME280;41148;45.420;10.952;2023-12-28T12:05:15;101803.50;;;11.26;80.67
23427;BME280;41148;45.420;10.952;2023-12-28T12:07:42;101801.47;;;11.44;80.27
23427;BME280;41148;45.420;10.952;2023-12-28T12:10:15;101801.59;;;11.35;80.06
23427;BME280;41148;45.420;10.952;2023-12-28T12:12:44;101790.09;;;11.29;80.10
23427;BME280;41148;45.420;10.952;2023-12-28T12:15:11;101784.69;;;11.36;79.40
23427;BME280;41148;45.420;10.952;2023-12-28T12:17:39;101790.00;;;11.36;79.47
23427;BME280;41148;45.420;10.952;2023-12-28T12:20:08;101781.09;;;11.39;79.33
23427;BME280;41148;45.420;10.952;2023-12-28T12:22:36;101786.50;;;11.34;78.31
23427;BME280;41148;45.420;10.952;2023-12-28T12:25:05;101781.97;;;11.38;78.82
23427;BME280;41148;45.420;10.952;2023-12-28T12:27:36;101786.41;;;11.40;78.82
23427;BME280;41148;45.420;10.952;2023-12-28T12:30:07;101770.34;;;11.43;78.43
23427;BME280;41148;45.420;10.952;2023-12-28T12:32:35;101765.97;;;11.38;79.26
23427;BME280;41148;45.420;10.952;2023-12-28T12:35:11;101768.63;;;11.41;79.05
23427;BME280;41148;45.420;10.952;2023-12-28T12:37:39;101759.75;;;11.37;79.31
23427;BME280;41148;45.420;10.952;2023-12-28T12:40:07;101753.41;;;11.46;78.73
23427;BME280;41148;45.420;10.952;2023-12-28T12:42:37;101764.03;;;11.51;78.63
23427;BME280;41148;45.420;10.952;2023-12-28T12:45:06;101760.44;;;11.52;79.06
23427;BME280;41148;45.420;10.952;2023-12-28T12:47:34;101756.19;;;11.40;79.46
23427;BME280;41148;45.420;10.952;2023-12-28T12:50:02;101749.09;;;11.37;79.47
23427;BME280;41148;45.420;10.952;2023-12-28T12:52:30;101749.09;;;11.36;79.17
23427;BME280;41148;45.420;10.952;2023-12-28T12:54:58;101757.97;;;11.39;79.34
23427;BME280;41148;45.420;10.952;2023-12-28T12:57:27;101754.47;;;11.34;79.87
23427;BME280;41148;45.420;10.952;2023-12-28T12:59:55;101757.97;;;11.39;79.37
23427;BME280;41148;45.420;10.952;2023-12-28T13:02:23;101758.13;;;11.27;80.04